Ufo 3 — IUNV — position and weather

sailwx.info

Track history (hours):
 
Tides and Currents Weather Stations Pressure Air Temp Water Temp Dewpoint Dewpoint Depression Visibility Wind Speed Wind Dir Waves Ship Positions

Ufo 3

Last reported at 2016-Aug-26 11:33 UTC. Time now 2016-Aug-26 11:57 UTC.
Position N 44°03' E 009°50'.

Length 28 m.

Type: Passenger vessel. MMSI: 247031600.

Date/timePositionNaut miles runAvg speedWind from/ knotsBaromVisibWave heightAir tempDewpointWater temp
2016-Aug-26 11:33N 44°03' E 009°50'2 2.2
2016-Aug-26 10:34N 44°04' E 009°47'3 0.7
2016-Aug-26 06:33N 44°05' E 009°50'2 0.2
2016-Aug-25 16:17N 44°03' E 009°51'0 0.6
2016-Aug-25 15:33N 44°03' E 009°50'2 1.9
2016-Aug-25 14:33N 44°03' E 009°48'7 6.9
2016-Aug-25 13:31N 44°08' E 009°40'4 3.6
2016-Aug-25 12:31N 44°06' E 009°44'2 1.7
2016-Aug-25 11:04N 44°07' E 009°41'3 4.9
2016-Aug-25 10:31N 44°06' E 009°44'5 5.4
2016-Aug-25 09:33N 44°03' E 009°50'6 4.6
2016-Aug-25 08:15N 44°06' E 009°43'2 2.2
2016-Aug-25 07:33N 44°07' E 009°42'6 0.4
2016-Aug-24 15:33N 44°06' E 009°50'3 2.8
2016-Aug-24 14:33N 44°03' E 009°50'3 3.3
2016-Aug-24 13:33N 44°04' E 009°46'6 4.9
2016-Aug-24 12:17N 44°08' E 009°39'2 2.9
2016-Aug-24 11:30N 44°09' E 009°36'5 3.5
2016-Aug-24 10:11N 44°07' E 009°42'2 3.3
2016-Aug-24 09:33N 44°06' E 009°44'8 7.6
2016-Aug-24 08:33N 44°04' E 009°54'1 1.4
2016-Aug-24 07:34N 44°04' E 009°53'2 1.6
2016-Aug-24 06:33N 44°03' E 009°51'0 0.0
2016-Aug-23 17:13N 44°03' E 009°51'1 1.7
2016-Aug-23 16:33N 44°04' E 009°52'5 4.6
2016-Aug-23 15:33N 44°04' E 009°46'2 2.0
2016-Aug-23 14:34N 44°05' E 009°44'1 0.5
2016-Aug-23 13:24N 44°06' E 009°44'4 4.9
2016-Aug-23 12:32N 44°09' E 009°39'10 0.5
2016-Aug-22 16:13N 44°03' E 009°51'0 0.4
2016-Aug-22 15:33N 44°03' E 009°51'10 6.7
2016-Aug-22 14:05N 44°09' E 009°39'0 0.1
2016-Aug-22 13:28N 44°09' E 009°39'4 3.7
2016-Aug-22 12:16N 44°06' E 009°44'5 7.3
2016-Aug-22 11:34N 44°03' E 009°50'0 0.0
2016-Aug-22 10:34N 44°03' E 009°50'2 1.7
2016-Aug-22 09:33N 44°04' E 009°48'8 6.8
2016-Aug-22 08:24N 44°08' E 009°39'2 1.7
2016-Aug-22 07:28N 44°09' E 009°37'11 0.8
2016-Aug-21 16:12N 44°03' E 009°51'1 2.0
2016-Aug-21 15:33N 44°04' E 009°52'2 1.6
2016-Aug-21 14:33N 44°03' E 009°50'10 4.5
2016-Aug-21 12:27N 44°09' E 009°39'0 0.0
2016-Aug-21 11:33N 44°09' E 009°39'1 0.7
2016-Aug-21 10:32N 44°08' E 009°40'7 0.4
2016-Aug-20 17:33N 44°06' E 009°50'4 3.6
2016-Aug-20 16:33N 44°05' E 009°45'5 5.1
2016-Aug-20 15:30N 44°08' E 009°39'6 6.7
2016-Aug-20 14:34N 44°04' E 009°46'3 3.4
2016-Aug-20 13:33N 44°03' E 009°50'0 0.0
2016-Aug-20 12:33N 44°03' E 009°50'0 0.1
2016-Aug-20 11:33N 44°03' E 009°50'7 3.7
2016-Aug-20 09:32N 44°07' E 009°42'7 7.6
2016-Aug-20 08:33N 44°03' E 009°50'1 0.0
2016-Aug-18 16:33N 44°03' E 009°49'8 6.7
2016-Aug-18 15:18N 44°09' E 009°39'4 5.3
2016-Aug-18 14:27N 44°06' E 009°44'5 5.8
2016-Aug-18 13:33N 44°03' E 009°50'0 0.0
2016-Aug-18 12:33N 44°03' E 009°50'0 0.4
2016-Aug-18 11:33N 44°03' E 009°50'9 7.9
2016-Aug-18 10:25N 44°08' E 009°40'9 5.0
2016-Aug-18 08:33N 44°03' E 009°50'3 3.2
2016-Aug-18 07:33N 44°06' E 009°50'3 2.8
2016-Aug-18 06:33N 44°04' E 009°51'1 0.2
2016-Aug-17 22:33N 44°04' E 009°53'2 2.2
2016-Aug-17 21:34N 44°03' E 009°50'0 0.4
2016-Aug-17 20:33N 44°03' E 009°51'0 0.0
2016-Aug-17 19:33N 44°03' E 009°51'3 2.8
2016-Aug-17 18:33N 44°04' E 009°54'0 0.4
2016-Aug-17 17:33N 44°04' E 009°55'1 1.0
2016-Aug-17 16:34N 44°04' E 009°53'2 2.4
2016-Aug-17 15:33N 44°03' E 009°50'1 0.9
2016-Aug-17 14:33N 44°03' E 009°51'1 1.3
2016-Aug-17 13:33N 44°02' E 009°51'3 3.0
2016-Aug-17 12:34N 44°04' E 009°54'2 0.9
2016-Aug-17 10:10N 44°03' E 009°51'3 4.5
2016-Aug-17 09:33N 44°04' E 009°54'3 3.3
2016-Aug-17 08:33N 44°03' E 009°50'3 3.4
2016-Aug-17 07:33N 44°04' E 009°55'5 0.3
2016-Aug-16 16:33N 44°03' E 009°49'4 2.0
2016-Aug-16 14:28N 44°06' E 009°44'5 5.8
2016-Aug-16 13:33N 44°03' E 009°50'  
Track history (hours):
 
Tides and Currents Weather Stations Pressure Air Temp Water Temp Dewpoint Dewpoint Depression Visibility Wind Speed Wind Dir Waves Ship Positions

Ufo 3

Last reported at 2016-Aug-26 11:33 UTC. Time now 2016-Aug-26 11:57 UTC.
Position N 44°03' E 009°50'.

Length 28 m.

Type: Passenger vessel. MMSI: 247031600.

Date/timePositionNaut miles runAvg speedWind from/ knotsBaromVisibWave heightAir tempDewpointWater temp
2016-Aug-26 11:33N 44°03' E 009°50'2 2.2
2016-Aug-26 10:34N 44°04' E 009°47'3 0.7
2016-Aug-26 06:33N 44°05' E 009°50'2 0.2
2016-Aug-25 16:17N 44°03' E 009°51'0 0.6
2016-Aug-25 15:33N 44°03' E 009°50'2 1.9
2016-Aug-25 14:33N 44°03' E 009°48'7 6.9
2016-Aug-25 13:31N 44°08' E 009°40'4 3.6
2016-Aug-25 12:31N 44°06' E 009°44'2 1.7
2016-Aug-25 11:04N 44°07' E 009°41'3 4.9
2016-Aug-25 10:31N 44°06' E 009°44'5 5.4
2016-Aug-25 09:33N 44°03' E 009°50'6 4.6
2016-Aug-25 08:15N 44°06' E 009°43'2 2.2
2016-Aug-25 07:33N 44°07' E 009°42'6 0.4
2016-Aug-24 15:33N 44°06' E 009°50'3 2.8
2016-Aug-24 14:33N 44°03' E 009°50'3 3.3
2016-Aug-24 13:33N 44°04' E 009°46'6 4.9
2016-Aug-24 12:17N 44°08' E 009°39'2 2.9
2016-Aug-24 11:30N 44°09' E 009°36'5 3.5
2016-Aug-24 10:11N 44°07' E 009°42'2 3.3
2016-Aug-24 09:33N 44°06' E 009°44'8 7.6
2016-Aug-24 08:33N 44°04' E 009°54'1 1.4
2016-Aug-24 07:34N 44°04' E 009°53'2 1.6
2016-Aug-24 06:33N 44°03' E 009°51'0 0.0
2016-Aug-23 17:13N 44°03' E 009°51'1 1.7
2016-Aug-23 16:33N 44°04' E 009°52'5 4.6
2016-Aug-23 15:33N 44°04' E 009°46'2 2.0
2016-Aug-23 14:34N 44°05' E 009°44'1 0.5
2016-Aug-23 13:24N 44°06' E 009°44'4 4.9
2016-Aug-23 12:32N 44°09' E 009°39'10 0.5
2016-Aug-22 16:13N 44°03' E 009°51'0 0.4
2016-Aug-22 15:33N 44°03' E 009°51'10 6.7
2016-Aug-22 14:05N 44°09' E 009°39'0 0.1
2016-Aug-22 13:28N 44°09' E 009°39'4 3.7
2016-Aug-22 12:16N 44°06' E 009°44'5 7.3
2016-Aug-22 11:34N 44°03' E 009°50'0 0.0
2016-Aug-22 10:34N 44°03' E 009°50'2 1.7
2016-Aug-22 09:33N 44°04' E 009°48'8 6.8
2016-Aug-22 08:24N 44°08' E 009°39'2 1.7
2016-Aug-22 07:28N 44°09' E 009°37'11 0.8
2016-Aug-21 16:12N 44°03' E 009°51'1 2.0
2016-Aug-21 15:33N 44°04' E 009°52'2 1.6
2016-Aug-21 14:33N 44°03' E 009°50'10 4.5
2016-Aug-21 12:27N 44°09' E 009°39'0 0.0
2016-Aug-21 11:33N 44°09' E 009°39'1 0.7
2016-Aug-21 10:32N 44°08' E 009°40'7 0.4
2016-Aug-20 17:33N 44°06' E 009°50'4 3.6
2016-Aug-20 16:33N 44°05' E 009°45'5 5.1
2016-Aug-20 15:30N 44°08' E 009°39'6 6.7
2016-Aug-20 14:34N 44°04' E 009°46'3 3.4
2016-Aug-20 13:33N 44°03' E 009°50'0 0.0
2016-Aug-20 12:33N 44°03' E 009°50'0 0.1
2016-Aug-20 11:33N 44°03' E 009°50'7 3.7
2016-Aug-20 09:32N 44°07' E 009°42'7 7.6
2016-Aug-20 08:33N 44°03' E 009°50'1 0.0
2016-Aug-18 16:33N 44°03' E 009°49'8 6.7
2016-Aug-18 15:18N 44°09' E 009°39'4 5.3
2016-Aug-18 14:27N 44°06' E 009°44'5 5.8
2016-Aug-18 13:33N 44°03' E 009°50'0 0.0
2016-Aug-18 12:33N 44°03' E 009°50'0 0.4
2016-Aug-18 11:33N 44°03' E 009°50'9 7.9
2016-Aug-18 10:25N 44°08' E 009°40'9 5.0
2016-Aug-18 08:33N 44°03' E 009°50'3 3.2
2016-Aug-18 07:33N 44°06' E 009°50'3 2.8
2016-Aug-18 06:33N 44°04' E 009°51'1 0.2
2016-Aug-17 22:33N 44°04' E 009°53'2 2.2
2016-Aug-17 21:34N 44°03' E 009°50'0 0.4
2016-Aug-17 20:33N 44°03' E 009°51'0 0.0
2016-Aug-17 19:33N 44°03' E 009°51'3 2.8
2016-Aug-17 18:33N 44°04' E 009°54'0 0.4
2016-Aug-17 17:33N 44°04' E 009°55'1 1.0
2016-Aug-17 16:34N 44°04' E 009°53'2 2.4
2016-Aug-17 15:33N 44°03' E 009°50'1 0.9
2016-Aug-17 14:33N 44°03' E 009°51'1 1.3
2016-Aug-17 13:33N 44°02' E 009°51'3 3.0
2016-Aug-17 12:34N 44°04' E 009°54'2 0.9
2016-Aug-17 10:10N 44°03' E 009°51'3 4.5
2016-Aug-17 09:33N 44°04' E 009°54'3 3.3
2016-Aug-17 08:33N 44°03' E 009°50'3 3.4
2016-Aug-17 07:33N 44°04' E 009°55'5 0.3
2016-Aug-16 16:33N 44°03' E 009°49'4 2.0
2016-Aug-16 14:28N 44°06' E 009°44'5 5.8
2016-Aug-16 13:33N 44°03' E 009°50'  

Dump ship's entire track history